Time;durP1;ratioP1;P1;durP2;ratioP2;P2;SDS_P1;SDS_P2;PMS_P1;PMS_P2;Temp;Humidity;BMP_temperature;BMP_pressure;BME280_temperature;BME280_humidity;BME280_pressure;Samples;Min_cycle;Max_cycle;Signal;HPM_P1;HPM_P2
2024/02/18 00:02:22;;;;;;;10.25;5.15;;;;;;;-1.25;72.04;99839.34;5054932;28;20059;-65
2024/02/18 00:04:48;;;;;;;14.52;5.88;;;;;;;-1.25;72.33;99828.25;5041537;28;20052;-65
2024/02/18 00:07:14;;;;;;;13.48;5.97;;;;;;;-1.36;71.80;99807.38;5055592;28;20525;-64
2024/02/18 00:09:40;;;;;;;13.48;5.57;;;;;;;-1.13;72.38;99832.94;5055078;28;20041;-65
2024/02/18 00:12:09;;;;;;;14.80;5.53;;;;;;;-1.47;72.26;99776.34;5054432;28;20132;-64
2024/02/18 00:14:41;;;;;;;12.25;5.65;;;;;;;-1.31;71.77;99793.13;5054219;28;20048;-64
2024/02/18 00:17:10;;;;;;;10.82;4.88;;;;;;;-1.16;72.07;99822.63;5052362;28;20037;-65
2024/02/18 00:19:36;;;;;;;12.95;5.38;;;;;;;-1.10;72.53;99813.50;5053736;28;20095;-64
2024/02/18 00:22:02;;;;;;;9.95;4.75;;;;;;;-1.22;72.57;99793.50;5053609;28;20028;-65
2024/02/18 00:24:28;;;;;;;10.10;4.97;;;;;;;-1.18;72.37;99793.59;5056186;28;20991;-65
2024/02/18 00:26:54;;;;;;;11.35;4.82;;;;;;;-1.16;71.88;99791.97;5048009;28;20155;-64
2024/02/18 00:29:20;;;;;;;10.85;4.30;;;;;;;-1.14;72.51;99791.22;5039674;28;20033;-65
2024/02/18 00:31:47;;;;;;;10.70;4.95;;;;;;;-1.18;72.52;99791.91;5037355;28;20107;-66
2024/02/18 00:34:19;;;;;;;8.77;3.67;;;;;;;-1.24;71.97;99768.69;5056596;28;20522;-64
2024/02/18 00:36:45;;;;;;;9.98;4.47;;;;;;;-1.09;72.51;99794.81;5043252;28;20131;-65
2024/02/18 00:39:14;;;;;;;9.80;4.03;;;;;;;-1.02;72.03;99795.94;5055032;28;20094;-63
2024/02/18 00:41:43;;;;;;;11.43;4.18;;;;;;;-1.04;72.88;99797.56;5058217;28;20033;-64
2024/02/18 00:44:10;;;;;;;8.48;4.28;;;;;;;-1.02;72.54;99801.03;5041144;28;20403;-64
2024/02/18 00:46:38;;;;;;;11.15;4.57;;;;;;;-1.10;72.47;99772.63;5058355;28;20465;-64
2024/02/18 00:49:04;;;;;;;10.40;4.47;;;;;;;-1.09;72.57;99776.06;5058600;28;20118;-64
2024/02/18 00:51:32;;;;;;;9.68;3.72;;;;;;;-1.12;73.00;99771.72;5053461;28;20044;-64
2024/02/18 00:53:58;;;;;;;10.25;4.57;;;;;;;-1.06;72.73;99773.63;5054669;28;20162;-65
2024/02/18 00:56:25;;;;;;;7.63;4.18;;;;;;;-1.09;72.37;99758.19;5057030;28;20066;-65
2024/02/18 00:58:54;;;;;;;12.50;4.57;;;;;;;-1.04;72.41;99771.13;5056366;28;20052;-65
2024/02/18 01:01:20;;;;;;;7.80;3.25;;;;;;;-0.96;72.24;99774.84;5058319;28;20517;-65
2024/02/18 01:03:46;;;;;;;10.35;4.47;;;;;;;-0.93;72.69;99773.28;5024066;28;20048;-65
2024/02/18 01:06:12;;;;;;;8.35;3.05;;;;;;;-0.94;72.92;99765.56;5040064;28;20510;-65
2024/02/18 01:08:40;;;;;;;11.82;4.05;;;;;;;-0.99;73.05;99738.97;5055334;28;20048;-63
2024/02/18 01:11:06;;;;;;;15.40;4.97;;;;;;;-0.86;73.08;99755.63;5038832;28;20454;-64
2024/02/18 01:13:32;;;;;;;7.07;3.83;;;;;;;-0.73;73.45;99764.59;5055883;28;20143;-64
2024/02/18 01:16:05;;;;;;;9.07;4.57;;;;;;;-0.86;73.04;99742.84;5026810;28;20040;-63
2024/02/18 01:18:39;;;;;;;8.93;4.30;;;;;;;-0.92;73.23;99738.38;5053045;28;20039;-64
2024/02/18 01:21:05;;;;;;;5.70;2.80;;;;;;;-0.89;73.17;99743.63;5040080;28;20091;-63
2024/02/18 01:23:31;;;;;;;8.05;3.75;;;;;;;-0.88;72.97;99726.59;5055164;28;20049;-65
2024/02/18 01:25:57;;;;;;;3.30;2.20;;;;;;;-0.82;73.45;99737.88;5044332;28;20490;-65
2024/02/18 01:28:24;;;;;;;11.45;4.50;;;;;;;-1.01;73.53;99718.50;5058694;28;20040;-65
2024/02/18 01:30:51;;;;;;;7.63;3.13;;;;;;;-0.86;73.58;99740.28;5054475;28;20147;-64
2024/02/18 01:33:17;;;;;;;9.50;4.03;;;;;;;-0.86;73.62;99732.63;5057744;28;20046;-65
2024/02/18 01:35:43;;;;;;;9.10;3.90;;;;;;;-0.88;73.31;99718.91;5041865;28;20033;-65
2024/02/18 01:38:09;;;;;;;5.93;2.45;;;;;;;-0.92;73.39;99703.47;5054269;28;20194;-65
2024/02/18 01:40:35;;;;;;;9.30;4.13;;;;;;;-0.76;73.52;99725.34;5054766;28;20049;-65
2024/02/18 01:43:02;;;;;;;9.05;3.85;;;;;;;-0.85;74.07;99709.66;5056944;28;20441;-64
2024/02/18 01:45:28;;;;;;;9.40;3.67;;;;;;;-0.75;73.74;99718.53;5055556;28;20092;-64
2024/02/18 01:47:56;;;;;;;9.18;4.60;;;;;;;-0.71;73.79;99725.50;5021602;28;20087;-63
2024/02/18 01:50:22;;;;;;;10.05;4.30;;;;;;;-0.89;73.84;99683.97;5033633;28;20046;-63
2024/02/18 01:52:52;;;;;;;8.48;3.55;;;;;;;-0.74;74.28;99701.53;5041919;28;20380;-63
2024/02/18 01:55:20;;;;;;;8.52;3.75;;;;;;;-0.71;73.72;99709.31;5044240;28;20047;-63
2024/02/18 01:57:49;;;;;;;8.65;4.28;;;;;;;-0.62;74.00;99707.94;5032475;28;20052;-62
2024/02/18 02:00:17;;;;;;;6.43;3.63;;;;;;;-0.66;73.90;99695.00;5046825;28;20040;-63
2024/02/18 02:02:47;;;;;;;12.95;4.57;;;;;;;-0.65;73.82;99699.28;5056154;28;20063;-64
2024/02/18 02:05:17;;;;;;;17.23;4.57;;;;;;;-0.63;73.88;99698.53;5049561;28;20068;-66
2024/02/18 02:07:44;;;;;;;10.93;4.30;;;;;;;-0.68;73.96;99700.06;5038184;28;20461;-67
2024/02/18 02:10:12;;;;;;;19.88;4.82;;;;;;;-1.09;74.47;99617.72;5057262;28;20052;-66
2024/02/18 02:12:40;;;;;;;9.65;4.30;;;;;;;-0.60;73.96;99707.97;5040727;28;20048;-65
2024/02/18 02:15:10;;;;;;;9.77;4.32;;;;;;;-0.70;74.83;99681.22;5058476;28;20506;-66
2024/02/18 02:17:37;;;;;;;7.35;3.53;;;;;;;-0.60;74.26;99684.97;5054698;28;20167;-65
2024/02/18 02:20:10;;;;;;;19.23;5.55;;;;;;;-0.67;73.94;99670.25;5054083;28;20059;-66
2024/02/18 02:22:38;;;;;;;14.85;3.78;;;;;;;-0.62;74.32;99674.72;5055317;28;20024;-66
2024/02/18 02:25:10;;;;;;;10.70;4.10;;;;;;;-0.73;73.94;99653.00;5056214;28;20045;-64
2024/02/18 02:27:41;;;;;;;15.07;4.78;;;;;;;-0.54;73.94;99691.97;5040493;28;20160;-65
2024/02/18 02:30:08;;;;;;;12.82;4.53;;;;;;;-0.62;73.79;99674.72;5042194;28;20094;-66
2024/02/18 02:32:37;;;;;;;15.90;4.55;;;;;;;-0.58;74.11;99687.59;5055627;28;20045;-65
2024/02/18 02:35:03;;;;;;;23.35;5.05;;;;;;;-0.62;74.17;99672.16;5019425;28;20090;-65
2024/02/18 02:37:31;;;;;;;27.85;6.68;;;;;;;-0.61;74.57;99680.69;5055701;28;20577;-66
2024/02/18 02:39:57;;;;;;;26.63;6.72;;;;;;;-0.67;74.32;99676.22;5053939;28;20511;-63
2024/02/18 02:42:23;;;;;;;27.33;7.35;;;;;;;-0.59;74.83;99670.53;5056901;28;20136;-64
2024/02/18 02:44:49;;;;;;;45.22;7.68;;;;;;;-0.59;75.20;99676.50;5057510;28;20522;-63
2024/02/18 02:47:15;;;;;;;16.40;4.57;;;;;;;-0.80;74.28;99636.59;5049109;28;20142;-63
2024/02/18 02:49:41;;;;;;;31.42;6.03;;;;;;;-0.66;74.26;99661.78;5024230;28;20458;-63
2024/02/18 02:52:07;;;;;;;22.52;5.40;;;;;;;-0.71;74.43;99646.25;5052452;28;20144;-64
2024/02/18 02:54:33;;;;;;;15.40;4.75;;;;;;;-0.86;74.59;99607.41;5038069;28;20131;-64
2024/02/18 02:56:59;;;;;;;10.82;3.55;;;;;;;-0.79;74.39;99617.03;5043065;28;20165;-66
2024/02/18 02:59:25;;;;;;;58.65;10.27;;;;;;;-0.63;75.60;99639.75;5054160;28;20040;-63
2024/02/18 03:01:51;;;;;;;26.02;6.07;;;;;;;-0.51;75.20;99652.06;5042259;28;20048;-63
2024/02/18 03:04:17;;;;;;;23.27;5.20;;;;;;;-0.53;75.02;99656.25;5053639;28;20041;-63
2024/02/18 03:06:43;;;;;;;30.88;6.47;;;;;;;-0.55;75.00;99654.47;5057747;28;20040;-66
2024/02/18 03:09:10;;;;;;;29.63;6.00;;;;;;;-0.46;75.36;99659.88;5040238;28;20236;-64
2024/02/18 03:11:36;;;;;;;46.50;8.40;;;;;;;-0.46;75.59;99659.88;5053980;28;20045;-66
2024/02/18 03:14:02;;;;;;;47.00;8.80;;;;;;;-0.38;75.49;99663.56;5054592;28;20063;-66
2024/02/18 03:16:28;;;;;;;40.33;6.97;;;;;;;-0.43;75.09;99644.66;5026867;28;20498;-66
2024/02/18 03:18:55;;;;;;;40.88;7.32;;;;;;;-0.41;75.51;99630.22;5038946;28;20040;-66
2024/02/18 03:21:23;;;;;;;16.10;4.68;;;;;;;-0.62;75.54;99608.25;5054386;28;20514;-66
2024/02/18 03:23:49;;;;;;;25.23;5.88;;;;;;;-0.50;75.06;99627.34;5025117;28;20109;-65
2024/02/18 03:26:18;;;;;;;39.45;7.57;;;;;;;-0.34;75.69;99636.41;5026854;28;20048;-65
2024/02/18 03:28:46;;;;;;;33.83;7.07;;;;;;;-0.42;75.63;99633.59;5053454;28;20045;-66
2024/02/18 03:31:18;;;;;;;32.10;7.15;;;;;;;-0.51;75.91;99611.16;5053957;28;20060;-66
2024/02/18 03:33:45;;;;;;;21.05;5.00;;;;;;;-0.41;75.85;99625.13;5050955;28;20040;-67
2024/02/18 03:36:11;;;;;;;26.52;5.50;;;;;;;-0.41;75.86;99621.66;5038038;28;20090;-66
2024/02/18 03:38:38;;;;;;;37.60;7.78;;;;;;;-0.78;76.02;99578.75;5054962;28;20054;-67
2024/02/18 03:41:07;;;;;;;30.60;7.00;;;;;;;-0.53;76.10;99617.03;5054959;28;20162;-67
2024/02/18 03:43:34;;;;;;;37.83;6.93;;;;;;;-0.30;76.37;99640.81;5055523;28;20048;-67
2024/02/18 03:46:01;;;;;;;29.23;5.43;;;;;;;-0.54;75.85;99603.38;5056253;28;20209;-69
2024/02/18 03:48:28;;;;;;;21.95;5.30;;;;;;;-0.36;76.17;99627.81;5054347;28;20036;-68
2024/02/18 03:50:56;;;;;;;21.52;4.97;;;;;;;-0.49;75.86;99608.63;5042234;28;20100;-68
2024/02/18 03:53:22;;;;;;;33.95;7.00;;;;;;;-0.32;76.34;99629.66;5017793;28;20048;-69
2024/02/18 03:55:49;;;;;;;35.95;7.13;;;;;;;-0.48;75.71;99602.72;5036728;28;20044;-68
2024/02/18 03:58:15;;;;;;;51.53;9.77;;;;;;;-0.29;76.14;99618.63;5055438;28;20044;-67
2024/02/18 04:00:45;;;;;;;25.85;6.00;;;;;;;-0.24;76.34;99632.44;5046966;28;20417;-68
2024/02/18 04:03:13;;;;;;;20.17;5.18;;;;;;;-0.39;76.02;99609.81;5036816;28;20052;-68
2024/02/18 04:05:41;;;;;;;23.40;5.80;;;;;;;-0.38;76.63;99617.53;5026471;28;20051;-69
2024/02/18 04:08:07;;;;;;;33.88;6.93;;;;;;;-0.32;76.15;99630.50;5052415;28;20044;-66
2024/02/18 04:10:33;;;;;;;37.78;7.72;;;;;;;-0.32;76.67;99630.50;5024211;28;20094;-65
2024/02/18 04:12:59;;;;;;;38.00;7.53;;;;;;;-0.19;76.61;99638.59;5058380;28;20086;-63
2024/02/18 04:15:25;;;;;;;21.10;5.07;;;;;;;-0.40;76.37;99613.19;5057556;28;20521;-67
2024/02/18 04:17:53;;;;;;;42.38;7.18;;;;;;;-0.23;76.32;99624.84;5046105;28;20530;-66
2024/02/18 04:20:22;;;;;;;44.35;8.65;;;;;;;-0.22;76.48;99625.69;5054271;28;20044;-66
2024/02/18 04:22:48;;;;;;;37.38;7.03;;;;;;;-0.13;76.14;99640.47;5026970;28;20521;-65
2024/02/18 04:25:15;;;;;;;56.45;9.38;;;;;;;-0.03;76.84;99658.72;5052310;28;20041;-67
2024/02/18 04:27:41;;;;;;;33.78;7.45;;;;;;;-0.16;76.16;99623.34;5041647;28;20468;-66
2024/02/18 04:30:07;;;;;;;47.45;8.07;;;;;;;-0.31;76.88;99591.31;5056738;28;20045;-65
2024/02/18 04:32:33;;;;;;;54.90;8.73;;;;;;;-0.07;77.30;99627.88;5041191;28;20779;-67
2024/02/18 04:35:00;;;;;;;22.65;6.22;;;;;;;0.04;76.50;99641.84;5056477;28;20135;-67
2024/02/18 04:37:26;;;;;;;30.65;7.22;;;;;;;0.13;76.65;99641.28;5041845;28;20044;-66
2024/02/18 04:40:04;;;;;;;17.80;4.82;;;;;;;0.13;76.46;99646.38;5055966;28;20048;-66
2024/02/18 04:42:30;;;;;;;53.53;8.48;;;;;;;0.05;77.22;99622.28;5041051;28;20037;-65
2024/02/18 04:44:56;;;;;;;53.58;9.95;;;;;;;0.22;77.35;99644.13;5055640;28;20051;-65
2024/02/18 04:47:25;;;;;;;35.38;5.90;;;;;;;0.25;76.61;99658.69;5058760;28;20401;-65
2024/02/18 04:49:51;;;;;;;51.28;8.82;;;;;;;0.23;76.37;99666.34;5055847;28;20526;-65
2024/02/18 04:52:18;;;;;;;32.00;6.40;;;;;;;0.06;77.15;99616.34;5058138;28;20040;-66
2024/02/18 04:54:46;;;;;;;53.55;9.13;;;;;;;0.10;76.67;99629.25;5026633;28;20064;-64
2024/02/18 04:57:12;;;;;;;25.10;6.13;;;;;;;0.18;76.82;99644.00;5045399;28;20632;-66
2024/02/18 04:59:38;;;;;;;47.65;8.50;;;;;;;0.32;77.42;99667.47;5024257;28;20064;-65
2024/02/18 05:02:04;;;;;;;52.55;9.10;;;;;;;0.19;77.28;99640.63;5056577;28;20086;-67
2024/02/18 05:04:31;;;;;;;34.78;7.07;;;;;;;0.39;77.59;99664.25;5054607;28;20051;-67
2024/02/18 05:06:57;;;;;;;47.65;7.65;;;;;;;0.44;77.62;99667.81;5042670;28;20106;-66
2024/02/18 05:09:26;;;;;;;27.45;5.82;;;;;;;0.29;76.97;99643.50;5043224;28;20044;-67
2024/02/18 05:11:52;;;;;;;31.90;6.55;;;;;;;0.37;77.24;99646.28;5044720;28;20048;-67
2024/02/18 05:14:18;;;;;;;47.20;8.95;;;;;;;0.40;77.34;99653.19;5040855;28;20040;-66
2024/02/18 05:16:44;;;;;;;32.72;6.50;;;;;;;0.25;77.21;99631.44;5056972;28;20040;-67
2024/02/18 05:19:10;;;;;;;27.83;5.70;;;;;;;0.57;77.57;99680.16;5055985;28;20102;-67
2024/02/18 05:21:42;;;;;;;21.80;5.47;;;;;;;0.54;77.19;99668.97;5055995;28;20047;-66
2024/02/18 05:24:13;;;;;;;49.88;9.45;;;;;;;0.51;77.56;99664.63;5058053;28;20041;-67
2024/02/18 05:26:39;;;;;;;41.00;8.15;;;;;;;0.53;77.62;99677.47;5059515;28;20040;-69
2024/02/18 05:29:06;;;;;;;34.63;7.07;;;;;;;0.59;77.55;99678.50;5055962;28;20052;-68
2024/02/18 05:31:32;;;;;;;40.53;7.78;;;;;;;0.58;76.97;99676.75;5055029;28;20570;-68
2024/02/18 05:33:58;;;;;;;25.02;5.57;;;;;;;0.47;77.59;99646.53;5041045;28;20040;-67
2024/02/18 05:36:23;;;;;;;33.22;6.28;;;;;;;0.74;77.34;99696.03;5058059;28;20531;-68
2024/02/18 05:38:50;;;;;;;29.75;6.38;;;;;;;0.78;77.30;99694.41;5053977;28;20453;-68
2024/02/18 05:41:16;;;;;;;31.65;7.53;;;;;;;0.82;77.62;99705.63;5057239;28;20132;-68
2024/02/18 05:43:42;;;;;;;32.63;6.97;;;;;;;0.86;77.40;99710.88;5045639;28;20037;-69
2024/02/18 05:46:10;;;;;;;33.35;6.80;;;;;;;0.91;77.56;99711.00;5041698;28;20152;-67
2024/02/18 05:48:40;;;;;;;32.67;6.90;;;;;;;0.77;77.81;99682.44;5025934;28;20159;-67
2024/02/18 05:51:07;;;;;;;21.52;6.43;;;;;;;1.03;77.64;99711.38;5055730;28;20143;-66
2024/02/18 05:53:33;;;;;;;23.58;5.53;;;;;;;1.05;77.29;99706.28;5055597;28;20046;-66
2024/02/18 05:56:00;;;;;;;19.50;5.63;;;;;;;1.15;77.85;99710.84;5040105;28;20135;-67
2024/02/18 05:58:26;;;;;;;13.65;4.78;;;;;;;0.86;77.69;99649.38;5040657;28;20048;-66
2024/02/18 06:00:52;;;;;;;17.92;5.15;;;;;;;1.34;78.03;99727.59;5054509;28;20142;-70
2024/02/18 06:03:19;;;;;;;7.78;3.75;;;;;;;1.39;77.56;99725.16;5055769;28;20032;-67
2024/02/18 06:05:45;;;;;;;12.45;4.10;;;;;;;1.28;77.35;99696.66;5054575;28;20044;-69
2024/02/18 06:08:11;;;;;;;12.75;3.97;;;;;;;1.55;77.28;99738.41;5049906;28;20051;-66
2024/02/18 06:10:37;;;;;;;11.20;3.78;;;;;;;1.40;77.62;99701.25;5059886;28;20542;-68
2024/02/18 06:13:03;;;;;;;10.80;3.45;;;;;;;1.58;77.72;99726.50;5056234;28;20040;-67
2024/02/18 06:15:30;;;;;;;8.48;3.63;;;;;;;1.68;77.39;99727.63;5056671;28;20045;-68
2024/02/18 06:17:57;;;;;;;10.48;4.07;;;;;;;1.78;77.54;99723.59;5051057;28;21494;-68
2024/02/18 06:20:25;;;;;;;7.10;3.70;;;;;;;1.74;77.25;99709.81;5056705;28;20041;-67
2024/02/18 06:22:51;;;;;;;6.30;4.03;;;;;;;2.01;77.24;99747.28;5055824;28;20037;-68
2024/02/18 06:25:17;;;;;;;6.25;3.67;;;;;;;2.09;76.85;99748.34;5042488;28;20495;-69
2024/02/18 06:27:44;;;;;;;9.38;3.60;;;;;;;2.09;76.89;99744.91;5057566;28;20041;-68
2024/02/18 06:30:11;;;;;;;5.80;3.10;;;;;;;2.20;77.04;99747.72;5050338;28;20640;-68
2024/02/18 06:32:40;;;;;;;7.13;3.40;;;;;;;2.11;76.60;99730.41;5055398;28;20033;-69
2024/02/18 06:35:08;;;;;;;11.77;2.92;;;;;;;2.22;76.41;99740.94;5042668;28;20048;-74
2024/02/18 06:37:34;;;;;;;5.88;3.72;;;;;;;2.25;75.93;99747.00;5065257;28;20158;-68
2024/02/18 06:40:01;;;;;;;6.15;2.72;;;;;;;2.31;76.34;99756.56;5038280;28;20044;-77
2024/02/18 06:42:30;;;;;;;5.50;3.30;;;;;;;2.45;76.38;99768.88;5045344;28;20041;-70
2024/02/18 06:44:56;;;;;;;5.90;3.28;;;;;;;2.33;76.60;99736.06;5061449;28;20123;-70
2024/02/18 06:47:23;;;;;;;6.43;2.60;;;;;;;2.44;75.95;99752.56;5042278;28;20414;-70
2024/02/18 06:49:49;;;;;;;4.30;2.25;;;;;;;2.13;76.07;99700.50;5053977;28;20047;-69
2024/02/18 06:52:15;;;;;;;5.85;2.75;;;;;;;2.50;76.51;99751.88;5053749;28;20053;-70
2024/02/18 06:54:41;;;;;;;3.90;2.38;;;;;;;2.68;75.71;99772.84;5051175;28;20051;-68
2024/02/18 06:57:07;;;;;;;6.45;2.10;;;;;;;2.66;75.54;99758.19;5057508;28;20048;-70
2024/02/18 06:59:33;;;;;;;3.45;2.20;;;;;;;2.69;75.55;99764.28;5051746;28;20040;-71
2024/02/18 07:01:59;;;;;;;6.82;2.13;;;;;;;2.81;76.01;99773.97;5039678;28;20043;-67
2024/02/18 07:04:25;;;;;;;3.63;1.70;;;;;;;2.70;75.27;99768.59;5053007;28;20040;-71
2024/02/18 07:06:51;;;;;;;6.10;1.88;;;;;;;2.69;75.78;99764.28;5044645;28;20051;-68
2024/02/18 07:09:17;;;;;;;3.25;1.70;;;;;;;2.81;75.64;99767.97;5039114;28;20037;-69
2024/02/18 07:11:43;;;;;;;2.80;1.73;;;;;;;2.87;75.85;99750.09;5052843;28;20060;-69
2024/02/18 07:14:09;;;;;;;3.45;1.65;;;;;;;3.19;75.36;99780.78;5054673;28;20182;-67
2024/02/18 07:16:35;;;;;;;1.77;1.25;;;;;;;3.40;75.39;99788.06;5055916;28;20044;-68
2024/02/18 07:19:01;;;;;;;1.90;1.25;;;;;;;3.63;75.56;99791.94;5052087;28;20158;-69
2024/02/18 07:21:30;;;;;;;3.30;1.30;;;;;;;3.76;75.06;99802.47;5033762;28;20051;-65
2024/02/18 07:23:56;;;;;;;3.05;1.38;;;;;;;3.74;75.25;99793.00;5033813;28;20345;-68
2024/02/18 07:26:21;;;;;;;1.45;1.10;;;;;;;3.48;74.46;99762.47;5040281;28;20033;-68
2024/02/18 07:28:47;;;;;;;1.65;1.27;;;;;;;3.55;74.50;99778.91;5054194;28;20036;-67
2024/02/18 07:31:13;;;;;;;3.35;1.00;;;;;;;3.65;73.83;99785.97;5036116;28;20106;-66
2024/02/18 07:33:39;;;;;;;2.50;1.40;;;;;;;3.55;74.13;99771.19;5053900;28;20036;-69
2024/02/18 07:36:05;;;;;;;3.58;1.20;;;;;;;3.53;73.42;99772.88;5037194;28;20197;-67
2024/02/18 07:38:31;;;;;;;4.80;0.80;;;;;;;3.25;73.93;99755.19;5038775;28;20036;-69
2024/02/18 07:40:57;;;;;;;1.15;0.98;;;;;;;3.57;73.71;99810.69;5055363;28;20044;-69
2024/02/18 07:43:25;;;;;;;1.55;1.13;;;;;;;3.67;73.46;99807.47;5055539;28;20073;-69
2024/02/18 07:45:51;;;;;;;3.95;1.27;;;;;;;3.63;73.48;99794.50;5060909;28;20067;-68
2024/02/18 07:48:17;;;;;;;1.90;1.30;;;;;;;3.91;73.64;99809.63;5053986;28;20776;-69
2024/02/18 07:50:45;;;;;;;1.60;1.10;;;;;;;4.26;73.50;99825.69;5039426;28;20083;-70
2024/02/18 07:53:24;;;;;;;3.58;1.33;;;;;;;4.27;72.58;99806.81;5040442;28;20422;-69
2024/02/18 07:55:50;;;;;;;2.17;1.15;;;;;;;4.20;73.00;99814.41;5038422;28;20952;-69
2024/02/18 07:58:16;;;;;;;1.50;1.20;;;;;;;4.22;71.97;99825.63;5038907;28;20045;-70
2024/02/18 08:00:42;;;;;;;2.60;1.20;;;;;;;4.26;72.80;99823.97;5037111;28;20033;-70
2024/02/18 08:03:09;;;;;;;2.58;1.20;;;;;;;4.28;72.46;99826.59;5023044;28;20136;-72
2024/02/18 08:05:35;;;;;;;1.92;1.20;;;;;;;4.26;72.33;99836.00;5038696;28;20037;-70
2024/02/18 08:08:01;;;;;;;1.80;1.30;;;;;;;4.01;71.77;99820.94;5037318;28;20457;-70
2024/02/18 08:10:27;;;;;;;1.83;1.10;;;;;;;3.83;71.38;99848.94;5033656;28;20045;-68
2024/02/18 08:12:53;;;;;;;3.38;1.52;;;;;;;3.72;72.10;99856.44;5022652;28;20103;-70
2024/02/18 08:15:19;;;;;;;1.67;1.30;;;;;;;3.66;72.00;99849.47;5022517;28;20073;-68
2024/02/18 08:17:45;;;;;;;1.38;1.20;;;;;;;3.59;72.34;99845.03;5037545;28;20108;-67
2024/02/18 08:20:11;;;;;;;1.80;1.52;;;;;;;3.54;73.00;99842.38;5036441;28;20140;-68
2024/02/18 08:22:37;;;;;;;2.03;1.30;;;;;;;3.64;72.26;99868.31;5039115;28;20033;-67
2024/02/18 08:25:05;;;;;;;2.30;1.50;;;;;;;3.50;73.10;99844.84;5039472;28;20052;-67
2024/02/18 08:27:30;;;;;;;2.05;1.33;;;;;;;3.39;72.66;99868.66;5052299;28;20139;-68
2024/02/18 08:29:56;;;;;;;1.70;1.40;;;;;;;3.31;72.29;99877.91;5022923;28;20167;-66
2024/02/18 08:32:22;;;;;;;1.48;1.27;;;;;;;3.13;72.67;99857.78;5018812;28;20037;-67
2024/02/18 08:34:48;;;;;;;2.65;1.35;;;;;;;3.11;72.88;99870.59;5033764;28;20533;-68
2024/02/18 08:37:14;;;;;;;1.25;1.10;;;;;;;3.02;73.01;99875.56;5016825;28;20042;-69
2024/02/18 08:39:41;;;;;;;1.80;1.08;;;;;;;2.79;72.40;99860.47;5029847;28;20184;-68
2024/02/18 08:42:07;;;;;;;1.23;0.80;;;;;;;2.61;72.34;99884.00;5032685;28;20411;-66
2024/02/18 08:44:33;;;;;;;1.25;0.98;;;;;;;2.57;72.20;99887.31;5019863;28;20043;-69
2024/02/18 08:46:59;;;;;;;2.58;0.90;;;;;;;2.52;72.54;99881.22;5033233;28;20037;-67
2024/02/18 08:49:25;;;;;;;1.92;1.02;;;;;;;2.56;73.03;99895.84;5019784;28;20041;-68
2024/02/18 08:51:51;;;;;;;1.00;0.90;;;;;;;2.60;73.20;99913.09;5032500;28;21517;-68
2024/02/18 08:54:17;;;;;;;1.60;0.90;;;;;;;2.55;73.17;99883.84;5033296;28;20121;-68
2024/02/18 08:56:43;;;;;;;4.65;1.20;;;;;;;2.54;73.30;99867.56;5046563;28;20121;-69
2024/02/18 08:59:09;;;;;;;1.48;0.98;;;;;;;2.59;73.48;99865.09;5033822;28;20045;-70
2024/02/18 09:01:35;;;;;;;7.22;1.10;;;;;;;2.93;73.13;99913.88;5019273;28;20037;-64
2024/02/18 09:04:01;;;;;;;1.10;0.95;;;;;;;3.00;73.13;99890.94;5036445;28;20052;-66
2024/02/18 09:06:27;;;;;;;1.73;0.90;;;;;;;3.31;73.68;99898.50;5019469;28;20061;-68
2024/02/18 09:08:54;;;;;;;1.40;1.15;;;;;;;3.44;73.28;99884.16;5006918;28;20073;-67
2024/02/18 09:11:22;;;;;;;5.05;1.42;;;;;;;3.69;73.33;99897.56;5019950;28;20045;-67
2024/02/18 09:13:48;;;;;;;2.78;1.30;;;;;;;4.18;73.10;99905.41;5012023;28;20067;-66
2024/02/18 09:16:14;;;;;;;2.83;1.40;;;;;;;4.21;72.17;99896.00;5005280;28;20037;-68
2024/02/18 09:18:40;;;;;;;1.88;1.40;;;;;;;4.29;73.37;99909.03;5020108;28;20515;-66
2024/02/18 09:21:06;;;;;;;3.88;1.42;;;;;;;4.62;73.00;99928.53;5033947;28;20516;-67
2024/02/18 09:23:33;;;;;;;3.83;1.98;;;;;;;4.71;72.56;99888.25;5016134;28;20156;-65
2024/02/18 09:25:59;;;;;;;2.55;1.23;;;;;;;5.13;72.27;99889.78;5035237;28;20613;-68
2024/02/18 09:28:25;;;;;;;1.52;1.20;;;;;;;5.55;71.50;99921.34;5031384;28;20042;-66
2024/02/18 09:30:51;;;;;;;2.83;1.00;;;;;;;6.15;71.67;99928.97;5019053;28;20043;-67
2024/02/18 09:33:17;;;;;;;5.65;1.00;;;;;;;6.63;71.28;99914.81;5015398;28;20527;-68
2024/02/18 09:35:42;;;;;;;3.55;0.80;;;;;;;7.04;70.97;99903.09;5033674;28;20597;-67
2024/02/18 09:38:09;;;;;;;1.33;1.10;;;;;;;7.66;70.67;99926.75;5006147;28;20038;-68
2024/02/18 09:40:38;;;;;;;2.55;1.02;;;;;;;8.09;70.22;99910.50;5002772;28;20475;-67
2024/02/18 09:43:04;;;;;;;2.28;1.10;;;;;;;8.93;69.95;99930.56;5021496;28;20044;-71
2024/02/18 09:45:35;;;;;;;2.25;1.00;;;;;;;9.06;67.51;99905.47;5031712;28;20045;-69
2024/02/18 09:48:02;;;;;;;1.92;1.00;;;;;;;9.16;67.39;99927.94;5022381;28;20506;-68
2024/02/18 09:50:33;;;;;;;1.23;0.90;;;;;;;8.85;66.97;99920.19;5019479;28;20048;-68
2024/02/18 09:53:01;;;;;;;1.58;0.80;;;;;;;8.21;66.09;99906.25;5018691;28;20115;-65
2024/02/18 09:55:27;;;;;;;2.47;1.00;;;;;;;7.86;65.65;99935.47;5026433;28;20129;-66
2024/02/18 09:57:53;;;;;;;1.60;1.08;;;;;;;7.32;65.41;99936.06;5018938;28;20045;-66
2024/02/18 10:00:20;;;;;;;2.20;1.15;;;;;;;6.91;66.05;99935.78;5004964;28;20060;-66
2024/02/18 10:02:46;;;;;;;2.90;0.98;;;;;;;6.59;65.61;99948.41;5019709;28;20146;-66
2024/02/18 10:05:12;;;;;;;2.15;1.20;;;;;;;6.20;65.70;99940.25;5018340;28;20041;-67
2024/02/18 10:07:38;;;;;;;1.95;1.48;;;;;;;5.79;65.05;99913.03;5021645;28;20076;-67
2024/02/18 10:10:07;;;;;;;2.03;1.15;;;;;;;5.35;65.30;99900.41;5021567;28;20435;-68
2024/02/18 10:12:33;;;;;;;1.23;1.00;;;;;;;5.20;66.02;99938.06;5015014;28;20034;-67
2024/02/18 10:15:03;;;;;;;1.30;1.00;;;;;;;5.12;66.02;99953.41;5019093;28;20060;-66
2024/02/18 10:17:33;;;;;;;2.10;1.00;;;;;;;4.85;66.38;99946.09;5019106;28;20600;-67
2024/02/18 10:20:00;;;;;;;0.88;0.70;;;;;;;4.67;66.08;99944.94;5031556;28;20484;-69
2024/02/18 10:22:26;;;;;;;1.40;1.00;;;;;;;4.66;66.74;99968.09;5020073;28;20555;-67
2024/02/18 10:24:53;;;;;;;2.70;1.45;;;;;;;4.53;66.47;99967.88;5019694;28;20045;-67
2024/02/18 10:27:20;;;;;;;1.92;1.05;;;;;;;4.41;66.90;99971.97;5017584;28;20045;-67
2024/02/18 10:29:50;;;;;;;3.60;1.85;;;;;;;4.50;66.68;99988.47;5018569;28;20040;-68
2024/02/18 10:32:17;;;;;;;3.58;1.50;;;;;;;4.32;67.20;99968.34;5018682;28;20555;-67
2024/02/18 10:34:44;;;;;;;3.00;1.55;;;;;;;4.33;67.19;100002.69;5019144;28;20049;-68
2024/02/18 10:37:36;;;;;;;4.97;2.75;;;;;;;4.35;67.08;99993.28;5015106;28;20048;-69
2024/02/18 10:40:18;;;;;;;5.75;1.55;;;;;;;4.46;67.28;99999.53;5031264;28;20041;-68
2024/02/18 10:42:54;;;;;;;8.18;2.38;;;;;;;4.42;67.31;99997.75;5014963;28;20398;-68
2024/02/18 10:45:24;;;;;;;3.67;1.73;;;;;;;3.99;67.61;99958.25;5018302;28;20041;-67
2024/02/18 10:47:53;;;;;;;2.85;1.42;;;;;;;3.94;67.84;99998.47;5018520;28;20048;-68
2024/02/18 10:50:21;;;;;;;3.50;1.77;;;;;;;3.78;67.75;99987.84;5017587;28;20041;-66
2024/02/18 10:52:59;;;;;;;3.35;2.10;;;;;;;3.76;68.60;99992.94;5016420;28;20049;-67
2024/02/18 10:55:34;;;;;;;1.73;1.30;;;;;;;3.84;68.25;100020.59;5019113;28;20065;-68
2024/02/18 10:58:21;;;;;;;3.38;1.65;;;;;;;3.81;68.82;100021.41;5000382;28;20456;-68
2024/02/18 11:00:51;;;;;;;2.42;1.65;;;;;;;3.67;68.80;100010.78;5020667;28;20046;-68
2024/02/18 11:03:52;;;;;;;3.28;1.38;;;;;;;3.56;68.81;100015.69;5001230;28;20120;-68
2024/02/18 11:06:19;;;;;;;2.93;1.27;;;;;;;3.52;69.60;100023.31;5002554;28;20049;-68
2024/02/18 11:08:46;;;;;;;6.45;1.60;;;;;;;3.43;69.04;100039.38;5011811;28;20048;-67
2024/02/18 11:11:13;;;;;;;2.55;1.40;;;;;;;3.32;69.91;100041.69;5031132;28;20045;-66
2024/02/18 11:13:40;;;;;;;1.73;1.20;;;;;;;3.26;70.42;100044.97;5015300;28;20069;-68
2024/02/18 11:16:09;;;;;;;2.55;1.50;;;;;;;3.31;70.29;100042.53;5017297;28;20038;-68
2024/02/18 11:18:37;;;;;;;3.63;2.30;;;;;;;3.37;70.89;100031.53;5050305;28;20051;-68
2024/02/18 11:21:05;;;;;;;4.35;2.47;;;;;;;3.61;70.84;100026.06;5013492;28;20090;-69
2024/02/18 11:23:32;;;;;;;6.85;1.88;;;;;;;3.75;70.23;100022.09;5018179;28;20069;-69
2024/02/18 11:25:59;;;;;;;2.30;1.50;;;;;;;3.97;70.86;100020.03;5018586;28;21140;-70
2024/02/18 11:28:25;;;;;;;3.38;1.70;;;;;;;4.05;69.87;100031.34;5019076;28;20038;-68
2024/02/18 11:30:52;;;;;;;2.67;1.48;;;;;;;4.01;70.23;100028.69;5016244;28;20171;-69
2024/02/18 11:33:19;;;;;;;3.70;1.75;;;;;;;3.84;70.23;100028.31;5017735;28;20046;-68
2024/02/18 11:35:45;;;;;;;2.25;1.50;;;;;;;3.69;70.83;100029.72;5029943;28;20137;-67